Time;durP1;ratioP1;P1;durP2;ratioP2;P2;SDS_P1;SDS_P2;PMS_P1;PMS_P2;Temp;Humidity;BMP_temperature;BMP_pressure;BME280_temperature;BME280_humidity;BME280_pressure;Samples;Min_cycle;Max_cycle;Signal;HPM_P1;HPM_P2
2022/09/01 00:00:50;;;;;;;4.75;3.70;;;13.60;99.90;;;;;;5043025;28;20053;-48
2022/09/01 00:03:18;;;;;;;6.82;3.72;;;13.50;99.90;;;;;;5042878;28;20076;-48
2022/09/01 00:05:53;;;;;;;5.18;3.33;;;13.50;99.90;;;;;;5043276;28;20651;-49
2022/09/01 00:08:21;;;;;;;5.32;3.90;;;13.50;99.90;;;;;;5043597;28;20710;-48
2022/09/01 00:10:47;;;;;;;5.20;3.55;;;13.50;99.90;;;;;;5043253;28;20048;-48
2022/09/01 00:13:13;;;;;;;5.50;3.28;;;13.50;99.90;;;;;;5043256;28;20076;-48
2022/09/01 00:15:39;;;;;;;6.07;3.25;;;13.50;99.90;;;;;;5035991;28;20033;-47
2022/09/01 00:18:05;;;;;;;7.75;3.67;;;13.50;99.90;;;;;;5042438;28;20388;-47
2022/09/01 00:20:31;;;;;;;4.47;3.35;;;13.50;99.90;;;;;;5043021;28;20124;-51
2022/09/01 00:22:56;;;;;;;6.97;2.80;;;13.50;99.90;;;;;;5043900;28;20499;-50
2022/09/01 00:25:23;;;;;;;4.95;3.25;;;13.40;99.90;;;;;;5025647;28;20060;-47
2022/09/01 00:27:50;;;;;;;5.15;3.10;;;13.50;99.90;;;;;;5026110;28;20064;-49
2022/09/01 00:30:17;;;;;;;6.07;3.40;;;13.50;99.90;;;;;;5044027;28;20921;-48
2022/09/01 00:32:45;;;;;;;7.22;3.50;;;13.40;99.90;;;;;;5044577;28;20092;-48
2022/09/01 00:35:14;;;;;;;6.38;3.05;;;13.40;99.90;;;;;;5044012;28;20373;-51
2022/09/01 00:37:40;;;;;;;4.50;3.63;;;13.40;99.90;;;;;;5046445;28;20064;-48
2022/09/01 00:40:06;;;;;;;6.50;3.45;;;13.30;99.90;;;;;;5043021;28;20049;-48
2022/09/01 00:42:32;;;;;;;7.97;3.20;;;13.30;99.90;;;;;;5025624;28;20041;-48
2022/09/01 00:44:58;;;;;;;5.00;3.30;;;13.40;99.90;;;;;;5043224;28;20415;-48
2022/09/01 00:47:29;;;;;;;5.20;3.50;;;13.30;99.90;;;;;;5039521;28;20096;-48
2022/09/01 00:49:55;;;;;;;6.65;3.40;;;13.30;99.90;;;;;;5035238;28;20156;-48
2022/09/01 00:52:28;;;;;;;8.27;3.55;;;13.30;99.90;;;;;;5043352;28;20716;-49
2022/09/01 00:54:57;;;;;;;5.55;3.30;;;13.30;99.90;;;;;;5042212;28;20052;-48
2022/09/01 00:57:23;;;;;;;7.65;3.50;;;13.30;99.90;;;;;;5041564;28;20593;-48
2022/09/01 00:59:55;;;;;;;4.30;3.30;;;13.20;99.90;;;;;;5042239;28;20044;-48
2022/09/01 01:02:21;;;;;;;4.35;3.20;;;13.20;99.90;;;;;;5042748;28;20048;-47
2022/09/01 01:04:47;;;;;;;4.05;3.10;;;13.20;99.90;;;;;;5041756;28;20093;-47
2022/09/01 01:07:15;;;;;;;4.45;3.53;;;13.20;99.90;;;;;;5042941;28;20103;-47
2022/09/01 01:09:43;;;;;;;3.40;3.10;;;13.20;99.90;;;;;;5041932;28;20504;-48
2022/09/01 01:12:17;;;;;;;5.28;3.38;;;13.20;99.90;;;;;;5043023;28;20131;-47
2022/09/01 01:14:48;;;;;;;8.50;3.83;;;13.20;99.90;;;;;;5024055;28;20073;-47
2022/09/01 01:17:16;;;;;;;6.65;3.78;;;13.20;99.90;;;;;;5024776;28;20044;-51
2022/09/01 01:25:21;;;;;;;5.65;3.70;;;13.10;99.90;;;;;;5042967;28;20103;-49
2022/09/01 01:27:47;;;;;;;5.35;3.10;;;13.10;99.90;;;;;;5042319;28;20052;-49
2022/09/01 01:30:15;;;;;;;4.72;3.20;;;13.10;99.90;;;;;;5041227;28;20088;-47
2022/09/01 01:32:41;;;;;;;5.28;3.80;;;13.10;99.90;;;;;;5041953;28;20107;-47
2022/09/01 01:35:13;;;;;;;7.55;4.15;;;13.00;99.90;;;;;;5041697;28;20056;-48
2022/09/01 01:37:44;;;;;;;5.68;3.75;;;13.00;99.90;;;;;;5042173;28;20110;-47
2022/09/01 01:40:14;;;;;;;5.65;3.50;;;13.00;99.90;;;;;;5041092;28;20048;-47
2022/09/01 01:42:49;;;;;;;6.38;4.18;;;13.00;99.90;;;;;;5041638;28;20044;-50
2022/09/01 01:45:18;;;;;;;5.88;3.55;;;13.00;99.90;;;;;;5042558;28;20499;-48
2022/09/01 01:47:52;;;;;;;4.65;3.35;;;13.00;99.90;;;;;;5042221;28;20052;-48
2022/09/01 01:50:28;;;;;;;3.92;3.53;;;13.00;99.90;;;;;;5041467;28;20507;-48
2022/09/01 01:52:58;;;;;;;4.55;3.85;;;13.00;99.90;;;;;;5026395;28;20507;-48
2022/09/01 01:55:27;;;;;;;4.97;3.53;;;13.00;99.90;;;;;;5042379;28;20049;-50
2022/09/01 01:57:55;;;;;;;4.65;3.70;;;13.00;99.90;;;;;;5024679;28;20429;-49
2022/09/01 02:00:23;;;;;;;6.07;4.10;;;13.00;99.90;;;;;;5041298;28;20060;-48
2022/09/01 02:02:53;;;;;;;5.00;3.47;;;12.90;99.90;;;;;;5040298;28;20118;-48
2022/09/01 02:05:23;;;;;;;4.80;3.10;;;12.90;99.90;;;;;;5041897;28;20049;-48
2022/09/01 02:07:51;;;;;;;4.60;3.80;;;12.90;99.90;;;;;;5041416;28;20475;-49
2022/09/01 02:10:16;;;;;;;4.70;3.42;;;12.80;99.90;;;;;;5039716;28;20072;-49
2022/09/01 02:12:42;;;;;;;5.82;3.50;;;12.90;99.90;;;;;;5040479;28;20124;-47
2022/09/01 02:15:11;;;;;;;6.13;5.03;;;12.90;99.90;;;;;;5041276;28;20048;-48
2022/09/01 02:17:38;;;;;;;4.07;3.25;;;12.80;99.90;;;;;;5041101;28;20526;-48
2022/09/01 02:20:05;;;;;;;6.47;3.78;;;12.80;99.90;;;;;;5028993;28;20590;-47
2022/09/01 02:22:31;;;;;;;5.30;3.60;;;12.70;99.90;;;;;;5022354;28;20051;-48
2022/09/01 02:24:59;;;;;;;3.63;3.33;;;12.70;99.90;;;;;;5041942;28;20053;-47
2022/09/01 02:27:28;;;;;;;4.40;3.75;;;12.70;99.90;;;;;;5040770;28;20587;-49
2022/09/01 02:29:54;;;;;;;6.78;3.70;;;12.70;99.90;;;;;;5039576;28;20053;-50
2022/09/01 02:32:20;;;;;;;4.55;3.67;;;12.70;99.90;;;;;;5040137;28;20041;-47
2022/09/01 02:34:52;;;;;;;5.53;3.28;;;12.70;99.90;;;;;;5040891;28;20508;-48
2022/09/01 02:37:24;;;;;;;5.00;3.75;;;12.70;99.90;;;;;;5023378;28;20474;-47
2022/09/01 02:39:56;;;;;;;5.20;3.70;;;12.60;99.90;;;;;;5040930;28;20087;-47
2022/09/01 02:42:25;;;;;;;5.05;3.65;;;12.60;99.90;;;;;;5023429;28;20057;-49
2022/09/01 02:44:53;;;;;;;5.97;3.22;;;12.60;99.90;;;;;;5041396;28;20454;-48
2022/09/01 02:47:22;;;;;;;4.72;3.60;;;12.60;99.90;;;;;;5041738;28;20044;-48
2022/09/01 02:49:51;;;;;;;6.68;3.60;;;12.60;99.90;;;;;;5038923;28;20535;-50
2022/09/01 02:52:19;;;;;;;4.07;3.60;;;12.50;99.90;;;;;;5040559;28;20048;-48
2022/09/01 02:54:48;;;;;;;6.57;3.78;;;12.50;99.90;;;;;;5040867;28;20586;-48
2022/09/01 02:57:16;;;;;;;4.45;3.50;;;12.50;99.90;;;;;;5041594;28;20091;-46
2022/09/01 02:59:46;;;;;;;5.15;3.85;;;12.50;99.90;;;;;;5041104;28;20057;-48
2022/09/01 03:02:12;;;;;;;3.80;3.40;;;12.50;99.90;;;;;;5041569;28;20060;-47
2022/09/01 03:04:37;;;;;;;4.30;3.75;;;12.50;99.90;;;;;;5040818;28;20428;-47
2022/09/01 03:07:05;;;;;;;5.63;4.13;;;12.50;99.90;;;;;;5044566;28;20090;-46
2022/09/01 03:09:31;;;;;;;5.72;4.18;;;12.40;99.90;;;;;;5041376;28;20048;-47
2022/09/01 03:11:57;;;;;;;6.95;3.97;;;12.50;99.90;;;;;;5040909;28;20047;-48
2022/09/01 03:14:24;;;;;;;6.03;3.92;;;12.50;99.90;;;;;;5042845;28;20081;-48
2022/09/01 03:16:51;;;;;;;5.35;3.90;;;12.50;99.90;;;;;;5045154;28;20048;-47
2022/09/01 03:19:17;;;;;;;6.05;4.10;;;12.50;99.90;;;;;;5026338;28;20602;-48
2022/09/01 03:21:45;;;;;;;4.82;4.10;;;12.40;99.90;;;;;;5044652;28;20130;-48
2022/09/01 03:24:15;;;;;;;4.68;4.15;;;12.50;99.90;;;;;;5026367;28;20044;-48
2022/09/01 03:26:42;;;;;;;6.20;4.32;;;12.40;99.90;;;;;;5039280;28;20052;-49
2022/09/01 03:29:09;;;;;;;4.93;3.72;;;12.50;99.90;;;;;;5044066;28;20053;-48
2022/09/01 03:31:35;;;;;;;4.88;4.38;;;12.50;99.90;;;;;;5043664;28;20579;-50
2022/09/01 03:34:02;;;;;;;7.00;4.28;;;12.50;99.90;;;;;;5044365;28;20305;-47
2022/09/01 03:36:32;;;;;;;5.72;4.22;;;12.50;99.90;;;;;;5044492;28;20057;-46
2022/09/01 03:38:58;;;;;;;4.47;4.05;;;12.50;99.90;;;;;;5044114;28;20499;-47
2022/09/01 03:41:27;;;;;;;6.97;4.75;;;12.50;99.90;;;;;;5043289;28;20094;-47
2022/09/01 03:43:57;;;;;;;12.00;5.00;;;12.50;99.90;;;;;;5043510;28;20059;-47
2022/09/01 03:46:25;;;;;;;4.75;4.30;;;12.50;99.90;;;;;;5042536;28;20041;-46
2022/09/01 03:48:54;;;;;;;5.13;4.45;;;12.50;99.90;;;;;;5042966;28;20041;-48
2022/09/01 03:51:21;;;;;;;4.63;4.18;;;12.60;99.90;;;;;;5042691;28;20571;-47
2022/09/01 03:53:48;;;;;;;5.10;4.60;;;12.60;99.90;;;;;;5043153;28;20110;-47
2022/09/01 03:56:15;;;;;;;5.95;4.93;;;12.60;99.90;;;;;;5043123;28;20079;-47
2022/09/01 03:58:45;;;;;;;6.18;4.10;;;12.60;99.90;;;;;;5043901;28;20522;-49
2022/09/01 04:01:12;;;;;;;4.72;4.10;;;12.60;99.90;;;;;;5042584;28;20419;-47
2022/09/01 04:03:40;;;;;;;6.60;4.22;;;12.60;99.90;;;;;;5043223;28;20526;-48
2022/09/01 04:06:08;;;;;;;5.20;4.53;;;12.50;99.90;;;;;;5031963;28;20064;-48
2022/09/01 04:08:33;;;;;;;5.38;4.55;;;12.60;99.90;;;;;;5043172;28;20459;-46
2022/09/01 04:11:08;;;;;;;5.75;4.93;;;12.50;99.90;;;;;;5043965;28;20045;-47
2022/09/01 04:13:37;;;;;;;5.88;5.28;;;12.50;99.90;;;;;;5043636;28;20052;-47
2022/09/01 04:16:09;;;;;;;6.80;4.63;;;12.50;99.90;;;;;;5043552;28;20076;-49
2022/09/01 04:18:35;;;;;;;5.50;4.80;;;12.50;99.90;;;;;;5027347;28;20056;-47
2022/09/01 04:21:02;;;;;;;6.47;4.90;;;12.50;99.90;;;;;;5046763;28;20335;-47
2022/09/01 04:23:32;;;;;;;7.05;4.93;;;12.40;99.90;;;;;;5026172;28;20053;-49
2022/09/01 04:26:08;;;;;;;6.78;5.22;;;12.40;99.90;;;;;;5042280;28;20114;-47
2022/09/01 04:28:37;;;;;;;5.97;5.25;;;12.40;99.90;;;;;;5042569;28;20055;-47
2022/09/01 04:31:08;;;;;;;6.03;5.25;;;12.30;99.90;;;;;;5042627;28;20364;-47
2022/09/01 04:33:38;;;;;;;5.90;5.40;;;12.30;99.90;;;;;;5025584;28;20051;-48
2022/09/01 04:36:30;;;;;;;7.32;5.90;;;12.30;99.90;;;;;;5043092;28;20542;-47
2022/09/01 04:38:59;;;;;;;8.63;6.07;;;12.30;99.90;;;;;;5042910;28;20056;-48
2022/09/01 04:41:31;;;;;;;5.72;5.20;;;12.30;99.90;;;;;;5042664;28;20051;-48
2022/09/01 04:43:59;;;;;;;6.30;5.70;;;12.20;99.90;;;;;;5042234;28;20510;-47
2022/09/01 04:46:30;;;;;;;6.72;5.85;;;12.20;99.90;;;;;;5042545;28;20419;-48
2022/09/01 04:48:56;;;;;;;9.18;5.30;;;12.20;99.90;;;;;;5043040;28;20059;-47
2022/09/01 04:51:26;;;;;;;6.50;5.40;;;12.20;99.90;;;;;;5041941;28;20048;-46
2022/09/01 04:53:56;;;;;;;8.30;5.38;;;12.20;99.90;;;;;;5040115;28;20049;-47
2022/09/01 04:56:24;;;;;;;6.55;5.47;;;12.10;99.90;;;;;;5042851;28;20041;-47
2022/09/01 04:58:50;;;;;;;8.05;5.45;;;12.10;99.90;;;;;;5042762;28;20049;-48
2022/09/01 05:01:21;;;;;;;6.40;5.75;;;12.10;99.90;;;;;;5041469;28;20449;-46
2022/09/01 05:03:52;;;;;;;6.40;5.45;;;12.10;99.90;;;;;;5041296;28;20143;-47
2022/09/01 05:06:19;;;;;;;5.68;5.07;;;12.10;99.90;;;;;;5042136;28;20049;-47
2022/09/01 05:08:45;;;;;;;5.32;4.82;;;12.10;99.90;;;;;;5042085;28;20044;-47
2022/09/01 05:11:15;;;;;;;6.30;5.78;;;12.20;99.90;;;;;;5041016;28;20128;-46
2022/09/01 05:13:44;;;;;;;7.28;4.78;;;12.20;99.90;;;;;;5043001;28;20052;-48
2022/09/01 05:16:13;;;;;;;6.03;4.90;;;12.20;99.90;;;;;;5041994;28;20045;-48
2022/09/01 05:18:43;;;;;;;7.50;4.80;;;12.30;99.90;;;;;;5024581;28;20045;-46
2022/09/01 05:21:09;;;;;;;6.68;4.80;;;12.30;99.90;;;;;;5035734;28;20048;-49
2022/09/01 05:23:39;;;;;;;5.95;4.97;;;12.40;99.90;;;;;;5041994;28;20053;-48
2022/09/01 05:26:16;;;;;;;7.20;4.45;;;12.40;99.90;;;;;;5041922;28;20468;-48
2022/09/01 05:28:55;;;;;;;5.50;4.35;;;12.50;99.90;;;;;;5024877;28;20187;-47
2022/09/01 05:31:22;;;;;;;7.63;4.25;;;12.80;99.90;;;;;;5042226;28;20056;-46
2022/09/01 05:33:49;;;;;;;4.93;4.22;;;13.30;99.90;;;;;;5045032;28;20052;-48
2022/09/01 05:36:18;;;;;;;7.15;4.47;;;14.00;99.90;;;;;;5043086;28;20056;-52
2022/09/01 05:38:46;;;;;;;6.38;4.05;;;14.30;99.90;;;;;;5041952;28;20084;-48
2022/09/01 05:41:14;;;;;;;6.25;4.45;;;14.30;99.90;;;;;;5040718;28;20048;-48
2022/09/01 05:43:45;;;;;;;5.15;4.13;;;14.30;99.90;;;;;;5041772;28;20052;-47
2022/09/01 05:46:14;;;;;;;9.60;4.38;;;14.50;99.90;;;;;;5041550;28;20055;-49
2022/09/01 05:48:44;;;;;;;6.75;3.80;;;15.40;99.90;;;;;;5042218;28;20052;-48
2022/09/01 05:51:16;;;;;;;15.85;3.72;;;16.80;99.90;;;;;;5041328;28;20051;-47
2022/09/01 05:53:43;;;;;;;6.40;3.63;;;17.70;99.90;;;;;;5041768;28;20598;-48
2022/09/01 05:56:11;;;;;;;10.88;3.95;;;17.90;99.90;;;;;;5042395;28;20502;-47
2022/09/01 05:58:39;;;;;;;8.20;3.72;;;17.20;99.90;;;;;;5041629;28;20506;-47
2022/09/01 06:01:06;;;;;;;7.70;3.70;;;17.80;99.90;;;;;;5019423;28;20506;-47
2022/09/01 06:03:33;;;;;;;4.95;3.13;;;19.10;99.90;;;;;;5019524;28;20053;-48
2022/09/01 06:06:05;;;;;;;5.38;2.95;;;20.40;99.90;;;;;;5021675;28;20416;-48
2022/09/01 06:08:31;;;;;;;4.50;3.42;;;20.50;99.90;;;;;;5021150;28;20119;-49
2022/09/01 06:10:57;;;;;;;5.35;2.80;;;20.20;99.90;;;;;;5020514;28;20120;-48
2022/09/01 06:13:23;;;;;;;4.65;3.08;;;21.40;99.90;;;;;;5021657;28;20096;-47
2022/09/01 06:15:52;;;;;;;4.45;3.00;;;21.80;98.40;;;;;;5021325;28;20056;-48
2022/09/01 06:18:20;;;;;;;4.95;3.10;;;21.60;97.90;;;;;;5020222;28;20053;-47
2022/09/01 06:20:48;;;;;;;3.97;2.50;;;20.40;97.90;;;;;;5019432;28;20049;-46
2022/09/01 06:23:16;;;;;;;3.92;2.72;;;19.50;99.00;;;;;;5021200;28;20080;-47
2022/09/01 06:25:45;;;;;;;4.63;2.65;;;18.70;99.60;;;;;;5021596;28;20523;-48
2022/09/01 06:28:15;;;;;;;5.65;2.83;;;18.30;99.90;;;;;;5020590;28;20050;-47
2022/09/01 06:30:43;;;;;;;3.05;2.53;;;19.20;99.90;;;;;;5020584;28;20049;-49
2022/09/01 06:33:10;;;;;;;3.45;2.40;;;20.70;99.90;;;;;;5021517;28;20088;-47
2022/09/01 06:35:37;;;;;;;6.05;2.70;;;21.90;98.00;;;;;;5022209;28;20053;-47
2022/09/01 06:38:05;;;;;;;6.93;2.63;;;22.70;97.40;;;;;;5020876;28;20051;-47
2022/09/01 06:40:34;;;;;;;5.65;2.58;;;23.30;97.00;;;;;;5020543;28;20056;-48
2022/09/01 06:43:01;;;;;;;3.95;2.40;;;24.10;96.20;;;;;;5020524;28;20503;-47
2022/09/01 06:45:27;;;;;;;4.28;2.65;;;23.90;95.00;;;;;;5021682;28;21024;-51
2022/09/01 06:47:54;;;;;;;3.50;2.40;;;24.00;95.10;;;;;;5020639;28;20058;-47
2022/09/01 06:50:22;;;;;;;4.45;2.10;;;24.60;94.50;;;;;;5023514;28;20057;-49
2022/09/01 06:52:59;;;;;;;5.28;2.30;;;25.00;93.60;;;;;;5026398;28;20404;-56
2022/09/01 06:55:30;;;;;;;4.18;2.30;;;25.40;93.40;;;;;;5024124;28;20049;-49
2022/09/01 06:57:56;;;;;;;2.47;2.10;;;25.80;92.70;;;;;;5024835;28;20108;-49
2022/09/01 07:00:22;;;;;;;2.55;1.83;;;25.80;92.30;;;;;;5023992;28;20463;-49
2022/09/01 07:02:54;;;;;;;4.10;1.95;;;25.90;91.30;;;;;;5024154;28;20061;-47
2022/09/01 07:05:20;;;;;;;4.20;2.25;;;24.60;91.70;;;;;;5022765;28;20057;-48
2022/09/01 07:07:50;;;;;;;3.65;2.38;;;23.80;92.60;;;;;;5025315;28;20155;-48
2022/09/01 07:10:23;;;;;;;2.95;2.17;;;23.90;92.80;;;;;;5022940;28;20055;-48
2022/09/01 07:12:50;;;;;;;2.97;2.38;;;24.10;92.90;;;;;;5023017;28;20419;-48
2022/09/01 07:15:20;;;;;;;6.68;3.58;;;23.70;93.10;;;;;;5022606;28;20045;-48
2022/09/01 07:17:54;;;;;;;3.25;2.30;;;23.10;93.10;;;;;;5020915;28;20123;-49
2022/09/01 07:20:24;;;;;;;3.50;2.40;;;22.20;93.90;;;;;;5022063;28;20412;-47
2022/09/01 07:22:51;;;;;;;4.18;2.28;;;21.70;94.80;;;;;;5024728;28;20080;-48
2022/09/01 07:25:19;;;;;;;6.65;2.33;;;21.40;95.30;;;;;;5023359;28;20057;-49
2022/09/01 07:27:49;;;;;;;4.55;1.85;;;21.10;95.60;;;;;;5020511;28;20057;-48
2022/09/01 07:30:17;;;;;;;2.95;2.17;;;20.90;96.20;;;;;;5023655;28;20117;-50
2022/09/01 07:32:43;;;;;;;4.32;2.08;;;20.90;96.50;;;;;;5023519;28;20072;-48
2022/09/01 07:35:11;;;;;;;2.70;2.20;;;20.80;96.80;;;;;;5023765;28;20096;-49
2022/09/01 07:37:37;;;;;;;2.72;2.15;;;20.80;97.00;;;;;;5023910;28;20059;-48
2022/09/01 07:40:18;;;;;;;3.08;1.83;;;20.90;97.30;;;;;;5023462;28;20049;-48
2022/09/01 07:42:52;;;;;;;3.58;2.03;;;21.00;96.60;;;;;;5024396;28;20152;-49
2022/09/01 07:45:18;;;;;;;3.55;2.40;;;21.00;97.00;;;;;;5024652;28;20049;-48
2022/09/01 07:47:44;;;;;;;3.50;2.33;;;21.10;97.20;;;;;;5025400;28;20057;-49
2022/09/01 07:50:13;;;;;;;2.30;2.00;;;21.10;96.90;;;;;;5023257;28;20049;-49
2022/09/01 07:52:44;;;;;;;2.50;2.20;;;21.10;96.80;;;;;;5023445;28;20053;-49
2022/09/01 07:55:15;;;;;;;3.58;2.40;;;21.00;96.80;;;;;;5023759;28;20536;-48
2022/09/01 07:57:44;;;;;;;3.00;2.22;;;20.90;96.70;;;;;;5025113;28;20056;-49
2022/09/01 08:00:13;;;;;;;5.20;2.40;;;20.80;97.00;;;;;;5023649;28;20076;-48
2022/09/01 08:02:42;;;;;;;5.88;2.67;;;20.80;96.90;;;;;;5024757;28;20869;-50
2022/09/01 08:05:12;;;;;;;4.50;2.45;;;20.90;97.10;;;;;;5041183;28;20091;-49
2022/09/01 08:07:38;;;;;;;4.18;2.38;;;20.80;97.10;;;;;;5045583;28;20049;-49
2022/09/01 08:10:06;;;;;;;5.80;2.78;;;20.80;97.30;;;;;;5046952;28;20045;-50
2022/09/01 08:12:33;;;;;;;5.55;2.53;;;20.90;97.50;;;;;;5043588;28;20134;-53
2022/09/01 08:15:01;;;;;;;4.53;2.22;;;20.90;97.50;;;;;;5043677;28;20053;-51
2022/09/01 08:17:26;;;;;;;4.85;2.15;;;21.00;98.40;;;;;;5043033;28;20052;-53
2022/09/01 08:19:52;;;;;;;3.95;2.33;;;21.10;97.60;;;;;;5043068;28;20522;-49
2022/09/01 08:22:22;;;;;;;4.97;1.80;;;21.10;96.90;;;;;;5042631;28;20494;-50
2022/09/01 08:24:48;;;;;;;3.97;2.10;;;21.10;97.10;;;;;;5042994;28;20049;-51
2022/09/01 08:27:14;;;;;;;4.40;2.38;;;21.20;96.90;;;;;;5042638;28;20561;-49
2022/09/01 08:29:40;;;;;;;4.75;2.10;;;21.20;96.80;;;;;;5042876;28;20045;-49
2022/09/01 08:32:06;;;;;;;3.60;2.10;;;21.30;97.10;;;;;;5041960;28;20515;-50
2022/09/01 08:34:33;;;;;;;3.65;1.98;;;21.20;96.70;;;;;;5042453;28;20048;-49
2022/09/01 08:36:59;;;;;;;3.83;2.03;;;21.10;96.60;;;;;;5043361;28;20049;-49
2022/09/01 08:39:26;;;;;;;4.25;2.30;;;21.20;96.70;;;;;;5042554;28;20106;-50
2022/09/01 08:42:30;;;;;;;4.18;2.75;;;21.30;96.80;;;;;;5043270;28;20355;-52
2022/09/01 08:45:23;;;;;;;2.65;2.05;;;21.40;96.80;;;;;;5042906;28;20056;-50
2022/09/01 08:47:57;;;;;;;3.05;2.13;;;21.60;97.50;;;;;;5042545;28;20053;-53
2022/09/01 08:50:23;;;;;;;4.07;2.00;;;21.60;96.50;;;;;;5041196;28;20145;-53
2022/09/01 08:53:08;;;;;;;2.70;2.10;;;21.50;96.30;;;;;;5041750;28;20045;-51
2022/09/01 08:55:43;;;;;;;6.28;2.10;;;21.50;96.40;;;;;;5042546;28;20136;-51
2022/09/01 08:58:12;;;;;;;5.63;2.30;;;21.50;96.50;;;;;;5042887;28;20061;-49
2022/09/01 09:00:42;;;;;;;4.50;2.13;;;21.60;96.40;;;;;;5042080;28;20154;-52
2022/09/01 09:03:13;;;;;;;3.53;1.90;;;21.70;96.10;;;;;;5042375;28;20518;-51
2022/09/01 09:05:56;;;;;;;4.38;1.80;;;21.70;96.00;;;;;;5042494;28;20049;-53
2022/09/01 09:08:44;;;;;;;3.83;2.58;;;21.70;95.50;;;;;;5041761;28;20079;-50
2022/09/01 09:11:31;;;;;;;2.40;1.40;;;21.70;96.20;;;;;;5041637;28;20196;-50
2022/09/01 09:14:12;;;;;;;2.70;1.80;;;21.70;95.70;;;;;;5024984;28;20054;-50
2022/09/01 09:16:47;;;;;;;2.15;1.50;;;21.90;95.80;;;;;;5043127;28;20555;-50
2022/09/01 09:19:24;;;;;;;4.35;1.73;;;22.00;95.60;;;;;;5042324;28;20076;-52
2022/09/01 09:21:52;;;;;;;3.22;1.70;;;22.00;95.80;;;;;;5040236;28;20130;-50
2022/09/01 09:24:51;;;;;;;4.85;1.60;;;22.20;96.10;;;;;;5042198;28;20540;-55
2022/09/01 09:27:39;;;;;;;6.45;1.88;;;22.30;95.70;;;;;;5024406;28;20163;-54
2022/09/01 09:30:14;;;;;;;5.45;1.75;;;22.30;95.20;;;;;;5041912;28;20407;-51
2022/09/01 09:32:49;;;;;;;1.95;1.38;;;22.30;94.60;;;;;;5043382;28;20130;-54
2022/09/01 09:35:32;;;;;;;3.90;2.03;;;22.20;94.50;;;;;;5042617;28;20102;-56
2022/09/01 09:38:21;;;;;;;2.78;1.33;;;22.20;94.80;;;;;;5045530;28;20044;-55
2022/09/01 09:41:01;;;;;;;2.70;1.90;;;22.30;94.60;;;;;;5044077;28;20056;-52
2022/09/01 09:43:30;;;;;;;3.53;1.38;;;22.40;94.60;;;;;;5045206;28;20049;-53
2022/09/01 09:46:25;;;;;;;4.60;1.73;;;22.40;93.60;;;;;;5044486;28;20056;-55
2022/09/01 09:49:19;;;;;;;3.75;1.50;;;22.40;93.80;;;;;;5041178;28;20428;-53
2022/09/01 09:51:51;;;;;;;2.90;1.33;;;22.50;93.30;;;;;;5040980;28;20061;-55
2022/09/01 09:54:20;;;;;;;3.17;1.50;;;22.30;93.00;;;;;;5035037;28;20060;-52
2022/09/01 09:56:49;;;;;;;4.95;1.38;;;22.40;93.40;;;;;;5044049;28;20060;-51
2022/09/01 09:59:30;;;;;;;3.28;1.63;;;22.30;93.60;;;;;;5042376;28;20433;-53
2022/09/01 10:01:58;;;;;;;2.15;1.30;;;22.40;93.90;;;;;;5041054;28;20051;-51
2022/09/01 10:04:34;;;;;;;2.28;1.55;;;22.60;93.70;;;;;;5041436;28;20045;-54
2022/09/01 10:07:00;;;;;;;2.80;1.40;;;22.70;93.50;;;;;;5040381;28;20540;-53
2022/09/01 10:09:26;;;;;;;4.18;1.55;;;22.70;93.50;;;;;;5040043;28;20049;-53
2022/09/01 10:11:54;;;;;;;3.85;1.27;;;22.70;92.90;;;;;;5040941;28;20135;-53
2022/09/01 10:14:50;;;;;;;5.55;1.42;;;22.80;93.20;;;;;;5041660;28;20537;-52
2022/09/01 10:17:27;;;;;;;4.30;1.48;;;22.80;93.30;;;;;;5042133;28;20049;-52
2022/09/01 10:20:05;;;;;;;2.55;1.27;;;22.90;92.70;;;;;;5043603;28;20049;-52
2022/09/01 10:22:35;;;;;;;2.28;1.10;;;22.90;92.20;;;;;;5022846;28;20092;-55
2022/09/01 10:25:02;;;;;;;3.00;1.27;;;23.10;91.30;;;;;;5024729;28;20085;-54
2022/09/01 10:27:37;;;;;;;2.17;1.17;;;23.10;90.60;;;;;;5024673;28;20049;-53
2022/09/01 10:30:12;;;;;;;2.28;1.23;;;23.10;90.60;;;;;;5024147;28;20511;-54
2022/09/01 10:32:59;;;;;;;2.08;1.13;;;23.20;90.20;;;;;;5023769;28;20061;-53
2022/09/01 10:35:28;;;;;;;1.98;1.10;;;23.00;89.40;;;;;;5023863;28;20743;-56
2022/09/01 10:37:57;;;;;;;1.27;1.00;;;23.00;89.70;;;;;;5024885;28;20355;-53
2022/09/01 10:40:27;;;;;;;5.07;1.20;;;23.10;90.40;;;;;;5024796;28;20049;-55
2022/09/01 10:42:59;;;;;;;3.15;1.80;;;23.30;90.30;;;;;;5025011;28;20096;-55
2022/09/01 10:45:36;;;;;;;4.70;1.50;;;23.30;89.00;;;;;;5024089;28;20566;-55
2022/09/01 10:48:20;;;;;;;2.15;1.42;;;23.00;86.80;;;;;;5024496;28;20053;-56
2022/09/01 10:50:48;;;;;;;4.30;1.13;;;22.90;88.00;;;;;;5024565;28;20049;-57
2022/09/01 10:53:32;;;;;;;1.23;1.00;;;23.00;87.90;;;;;;5024566;28;20045;-56
2022/09/01 10:56:22;;;;;;;1.63;1.00;;;23.30;88.50;;;;;;5020504;28;20118;-55
2022/09/01 10:59:14;;;;;;;1.60;1.10;;;23.50;87.60;;;;;;4960337;28;20066;-55
2022/09/01 11:01:40;;;;;;;3.93;1.17;;;23.30;87.20;;;;;;4961568;28;20539;-54
2022/09/01 11:04:38;;;;;;;2.80;1.25;;;23.40;88.10;;;;;;4961619;28;20105;-55
2022/09/01 11:07:25;;;;;;;1.30;1.00;;;23.60;88.20;;;;;;4961757;28;20078;-54
2022/09/01 11:10:28;;;;;;;2.03;1.05;;;23.70;87.50;;;;;;4953909;28;20081;-55
2022/09/01 11:13:20;;;;;;;3.38;1.10;;;23.70;86.80;;;;;;4960594;28;20051;-55
2022/09/01 11:15:48;;;;;;;2.20;1.17;;;23.70;87.00;;;;;;4947033;28;20063;-55
2022/09/01 11:18:37;;;;;;;1.77;1.17;;;23.70;86.60;;;;;;4964694;28;20058;-55
2022/09/01 11:21:24;;;;;;;2.47;1.23;;;23.60;86.20;;;;;;4969979;28;20141;-53
2022/09/01 11:23:50;;;;;;;1.90;1.30;;;23.70;86.10;;;;;;4967547;28;20068;-52
2022/09/01 11:26:31;;;;;;;1.38;1.05;;;23.80;86.60;;;;;;4966493;28;20046;-55
2022/09/01 11:28:57;;;;;;;2.63;1.30;;;23.80;86.30;;;;;;4958061;28;20062;-52
2022/09/01 11:31:23;;;;;;;2.50;1.02;;;23.80;85.90;;;;;;4961247;28;20064;-56
2022/09/01 11:34:12;;;;;;;2.00;1.00;;;23.80;85.60;;;;;;4961950;28;20055;-55
2022/09/01 11:36:47;;;;;;;2.95;1.13;;;23.60;85.80;;;;;;5013201;28;20091;-55
2022/09/01 11:39:13;;;;;;;2.75;1.20;;;23.50;86.90;;;;;;5027059;28;20819;-55
2022/09/01 11:41:39;;;;;;;3.30;1.10;;;23.40;86.40;;;;;;5025071;28;20052;-53
2022/09/01 11:44:31;;;;;;;2.28;1.42;;;23.60;86.60;;;;;;5026381;28;20569;-55
2022/09/01 11:47:20;;;;;;;1.88;1.30;;;23.70;85.10;;;;;;5027378;28;20148;-55
2022/09/01 11:49:49;;;;;;;1.67;0.82;;;23.80;85.80;;;;;;5027202;28;20092;-55
2022/09/01 11:52:18;;;;;;;4.63;1.20;;;23.90;85.20;;;;;;5026631;28;20528;-55
2022/09/01 11:54:47;;;;;;;1.73;1.00;;;23.90;85.10;;;;;;5027542;28;20058;-55
2022/09/01 11:57:25;;;;;;;1.80;0.95;;;24.00;86.10;;;;;;5027378;28;20108;-53
2022/09/01 11:59:51;;;;;;;1.27;0.98;;;24.10;85.40;;;;;;5027740;28;20045;-56
2022/09/01 12:02:28;;;;;;;3.85;1.38;;;24.20;84.90;;;;;;5025471;28;20144;-55
2022/09/01 12:04:55;;;;;;;3.05;1.20;;;24.10;85.50;;;;;;5027601;28;20144;-52
2022/09/01 12:07:43;;;;;;;2.67;1.00;;;24.20;84.90;;;;;;5028197;28;20386;-54
2022/09/01 12:10:28;;;;;;;3.75;1.10;;;24.10;84.70;;;;;;5028126;28;20051;-54
2022/09/01 12:13:07;;;;;;;3.28;1.27;;;24.10;83.80;;;;;;5027960;28;20053;-55
2022/09/01 12:15:40;;;;;;;2.78;1.08;;;23.80;83.20;;;;;;5028252;28;20092;-56
2022/09/01 12:18:20;;;;;;;2.33;1.08;;;23.50;84.00;;;;;;5026172;28;20060;-55
2022/09/01 12:20:48;;;;;;;3.60;0.88;;;23.50;84.40;;;;;;5029940;28;20131;-56
2022/09/01 12:23:34;;;;;;;1.80;0.80;;;23.50;84.80;;;;;;5046793;28;20052;-55
2022/09/01 12:26:13;;;;;;;3.08;1.20;;;23.80;84.90;;;;;;5025455;28;20075;-54
2022/09/01 12:28:40;;;;;;;2.00;1.10;;;24.10;84.30;;;;;;5047242;28;20523;-53
2022/09/01 12:31:13;;;;;;;3.08;1.05;;;24.30;84.50;;;;;;5028861;28;20060;-55
2022/09/01 12:33:42;;;;;;;1.85;0.90;;;24.40;82.60;;;;;;5046271;28;20053;-55
2022/09/01 12:36:20;;;;;;;1.58;0.90;;;24.40;82.40;;;;;;5046242;28;20045;-55
2022/09/01 12:38:47;;;;;;;2.95;1.48;;;24.40;82.40;;;;;;5045612;28;20128;-54
2022/09/01 12:41:36;;;;;;;2.63;1.00;;;24.40;83.70;;;;;;5045550;28;20049;-54
2022/09/01 12:44:33;;;;;;;3.58;1.15;;;24.50;83.30;;;;;;5043450;28;20049;-57
2022/09/01 12:47:02;;;;;;;3.17;1.33;;;24.60;84.30;;;;;;5046087;28;20123;-55
2022/09/01 12:49:46;;;;;;;1.95;1.10;;;24.40;84.90;;;;;;5035387;28;20164;-56
2022/09/01 12:52:12;;;;;;;3.08;1.23;;;24.40;85.00;;;;;;5046570;28;20653;-53
2022/09/01 12:54:38;;;;;;;4.35;0.98;;;24.40;84.30;;;;;;5028980;28;20061;-56
2022/09/01 12:57:05;;;;;;;3.22;1.00;;;24.40;85.00;;;;;;5028056;28;20057;-54
2022/09/01 12:59:34;;;;;;;2.17;1.20;;;24.40;83.90;;;;;;5046021;28;20045;-56
2022/09/01 13:02:37;;;;;;;3.47;1.00;;;24.40;84.50;;;;;;5044214;28;20064;-55
2022/09/01 13:05:21;;;;;;;3.05;0.98;;;24.30;83.60;;;;;;5026664;28;20102;-55
2022/09/01 13:07:48;;;;;;;4.35;1.10;;;24.10;82.30;;;;;;5045972;28;20045;-55
2022/09/01 13:10:15;;;;;;;2.65;1.00;;;23.90;83.40;;;;;;5045773;28;20052;-54
2022/09/01 13:12:43;;;;;;;1.50;0.90;;;23.60;83.60;;;;;;5046020;28;20045;-54